• Join FlightAware (Why Join?)
  • Login
  • US Flag 
05:28PM EDT


 

Airport Tracker/Info


-or-


 

Live Flight TrackerFlight Track Log ✈ FIV705 ✈ 07-May-2013 ✈ KBFI - KPAE

Flight Track Log - Related Links

Times and Time Zones

All times are in EDT time to prevent confusion due to time zone crossing. See the FIV705 flight status page for this flight to view local times or setup timezone preferences in your user account.

Time Position Orientation Groundspeed Altitude Reporting Facility
EDT Latitude Longitude Course Direction KTS MPH feet Rate Location/Type
01:33PM 47.5117 -122.2878 148° Southeast 190 219 1,200  Level Seattle Center
01:34PM 47.4389 -122.2197 148° Southeast 281 323 3,200 1,620 Climbing Seattle Center
01:35PM 47.4297 -122.1233 98° East 279 321 4,900 900 Climbing Seattle Center
01:36PM 47.4933 -122.0847 22° Northeast 272 313 5,000 -120 Climbing Seattle Center
01:37PM 47.5725 -122.0897 358° North 264 304 4,700 -540 Descending Seattle Center
01:38PM 47.6058 -122.0917 358° North 267 307 4,200 -1,200 Descending Seattle Center
01:38PM 47.6472 -122.0942 358° North 270 311 3,500 -1,140 Descending Seattle Center
01:39PM 47.6817 -122.0953 359° North 273 314 3,100 -540 Descending Seattle Center
01:39PM 47.7275 -122.0956 360° North 273 314 3,000 -120 Descending Seattle Center
01:40PM 47.7550 -122.0975 357° North 265 305 3,000 60 Level Seattle Center
01:40PM 47.7994 -122.0981 360° North 261 300 3,100 60 Climbing Seattle Center
01:41PM 47.8211 -122.0992 358° North 261 300 3,100  Level Seattle Center
01:41PM 47.8742 -122.1028 357° North 268 308 3,100  Level Seattle Center
01:42PM 47.8956 -122.1011 North 269 310 3,100 -180 Level Seattle Center
01:42PM 47.9328 -122.1061 355° North 243 280 3,000 -120 Descending Seattle Center
01:43PM 47.9686 -122.1042 North 206 237 3,000 60 Level Seattle Center
01:43PM 47.9900 -122.1039 360° North 196 226 3,100 60 Climbing Seattle Center
01:44PM 48.0239 -122.1125 350° North 203 234 3,100 -120 Level Seattle Center
01:44PM 48.0439 -122.1233 340° North 207 238 3,000 -120 Descending Seattle Center
01:45PM 48.0714 -122.1517 325° Northwest 198 228 3,000  Level Seattle Center
01:45PM 48.0811 -122.1822 295° West 196 226 3,000 60 Level Seattle Center
01:46PM 48.0919 -122.2283 289° West 206 237 3,100 60 Climbing Seattle Center
01:46PM 48.0903 -122.2633 266° West 209 241 3,100 -120 Level Seattle Center
01:47PM 48.0669 -122.2881 215° Southwest 208 239 3,000 -120 Descending Seattle Center
01:47PM 48.0350 -122.2908 183° South 201 231 3,000 -600 Level Seattle Center
01:48PM 48.0128 -122.2872 174° South 192 221 2,400 -1,020 Descending Seattle Center
01:48PM 47.9881 -122.2903 185° South 145 167 2,000 -720 Descending Seattle Center
01:49PM 47.9725 -122.2869 172° South 142 163 1,700 -720 Descending Seattle Center
01:49PM 47.9472 -122.2867 180° South 139 160 1,200 -720 Descending Seattle Center
01:50PM 47.9358 -122.2864 179° South 134 154 1,000 -300 Descending Seattle Center
01:51PM 47.9003 -122.2864 180° South 133 153 800 -240 Descending Seattle Center
01:53PM 47.9070 -122.2816 56° Northeast  Level Estimated